sensor_id;sensor_type;location;lat;lon;timestamp;temperature;humidity
20091;DHT22;10205;49.678;6.560;2023-02-28T00:01:21;6.30;49.10
20091;DHT22;10205;49.678;6.560;2023-02-28T00:03:49;6.30;49.10
20091;DHT22;10205;49.678;6.560;2023-02-28T00:06:16;6.30;49.10
20091;DHT22;10205;49.678;6.560;2023-02-28T00:08:43;6.20;49.20
20091;DHT22;10205;49.678;6.560;2023-02-28T00:11:12;6.20;49.20
20091;DHT22;10205;49.678;6.560;2023-02-28T00:13:44;6.20;49.30
20091;DHT22;10205;49.678;6.560;2023-02-28T00:16:15;6.10;49.30
20091;DHT22;10205;49.678;6.560;2023-02-28T00:18:43;6.10;49.40
20091;DHT22;10205;49.678;6.560;2023-02-28T00:21:15;6.10;49.40
20091;DHT22;10205;49.678;6.560;2023-02-28T00:23:46;6.10;49.40
20091;DHT22;10205;49.678;6.560;2023-02-28T00:26:13;6.10;49.50
20091;DHT22;10205;49.678;6.560;2023-02-28T00:28:41;6.00;49.50
20091;DHT22;10205;49.678;6.560;2023-02-28T00:31:09;6.00;49.70
20091;DHT22;10205;49.678;6.560;2023-02-28T00:33:36;6.00;49.70
20091;DHT22;10205;49.678;6.560;2023-02-28T00:36:05;6.00;49.80
20091;DHT22;10205;49.678;6.560;2023-02-28T00:38:34;5.90;49.80
20091;DHT22;10205;49.678;6.560;2023-02-28T00:41:02;5.90;49.70
20091;DHT22;10205;49.678;6.560;2023-02-28T00:43:31;5.90;49.60
20091;DHT22;10205;49.678;6.560;2023-02-28T00:46:01;5.90;49.70
20091;DHT22;10205;49.678;6.560;2023-02-28T00:48:29;5.80;49.70
20091;DHT22;10205;49.678;6.560;2023-02-28T00:50:56;5.80;49.90
20091;DHT22;10205;49.678;6.560;2023-02-28T00:53:23;5.70;50.00
20091;DHT22;10205;49.678;6.560;2023-02-28T00:55:50;5.70;50.10
20091;DHT22;10205;49.678;6.560;2023-02-28T00:58:17;5.70;50.20
20091;DHT22;10205;49.678;6.560;2023-02-28T01:00:44;5.70;50.10
20091;DHT22;10205;49.678;6.560;2023-02-28T01:03:17;5.70;50.20
20091;DHT22;10205;49.678;6.560;2023-02-28T01:05:44;5.60;50.30
20091;DHT22;10205;49.678;6.560;2023-02-28T01:08:14;5.60;50.40
20091;DHT22;10205;49.678;6.560;2023-02-28T01:10:41;5.60;50.20
20091;DHT22;10205;49.678;6.560;2023-02-28T01:13:09;5.60;50.00
20091;DHT22;10205;49.678;6.560;2023-02-28T01:15:40;5.50;49.90
20091;DHT22;10205;49.678;6.560;2023-02-28T01:18:10;5.50;50.30
20091;DHT22;10205;49.678;6.560;2023-02-28T01:20:39;5.50;50.40
20091;DHT22;10205;49.678;6.560;2023-02-28T01:23:06;5.40;50.60
20091;DHT22;10205;49.678;6.560;2023-02-28T01:25:34;5.40;50.70
20091;DHT22;10205;49.678;6.560;2023-02-28T01:28:01;5.40;50.80
20091;DHT22;10205;49.678;6.560;2023-02-28T01:30:28;5.40;50.80
20091;DHT22;10205;49.678;6.560;2023-02-28T01:32:55;5.30;50.60
20091;DHT22;10205;49.678;6.560;2023-02-28T01:35:22;5.30;50.70
20091;DHT22;10205;49.678;6.560;2023-02-28T01:37:51;5.30;50.80
20091;DHT22;10205;49.678;6.560;2023-02-28T01:40:18;5.30;50.90
20091;DHT22;10205;49.678;6.560;2023-02-28T01:42:45;5.30;50.90
20091;DHT22;10205;49.678;6.560;2023-02-28T01:45:22;5.30;50.90
20091;DHT22;10205;49.678;6.560;2023-02-28T01:47:54;5.20;51.00
20091;DHT22;10205;49.678;6.560;2023-02-28T01:50:26;5.20;51.00
20091;DHT22;10205;49.678;6.560;2023-02-28T01:52:59;5.20;51.10
20091;DHT22;10205;49.678;6.560;2023-02-28T01:55:30;5.20;51.20
20091;DHT22;10205;49.678;6.560;2023-02-28T01:58:01;5.10;51.10
20091;DHT22;10205;49.678;6.560;2023-02-28T02:00:32;5.10;51.20
20091;DHT22;10205;49.678;6.560;2023-02-28T02:03:04;5.10;51.20
20091;DHT22;10205;49.678;6.560;2023-02-28T02:05:37;5.10;51.10
20091;DHT22;10205;49.678;6.560;2023-02-28T02:08:09;5.10;51.20
20091;DHT22;10205;49.678;6.560;2023-02-28T02:10:41;5.00;51.20
20091;DHT22;10205;49.678;6.560;2023-02-28T02:13:33;5.00;51.30
20091;DHT22;10205;49.678;6.560;2023-02-28T02:16:17;5.00;51.50
20091;DHT22;10205;49.678;6.560;2023-02-28T02:18:59;5.00;51.40
20091;DHT22;10205;49.678;6.560;2023-02-28T02:22:01;4.90;51.20
20091;DHT22;10205;49.678;6.560;2023-02-28T02:31:21;4.80;51.50
20091;DHT22;10205;49.678;6.560;2023-02-28T02:34:27;4.80;51.50
20091;DHT22;10205;49.678;6.560;2023-02-28T02:37:11;4.70;51.60
20091;DHT22;10205;49.678;6.560;2023-02-28T02:39:50;4.70;51.60
20091;DHT22;10205;49.678;6.560;2023-02-28T02:42:27;4.70;51.70
20091;DHT22;10205;49.678;6.560;2023-02-28T02:45:03;4.70;51.70
20091;DHT22;10205;49.678;6.560;2023-02-28T02:47:37;4.60;51.80
20091;DHT22;10205;49.678;6.560;2023-02-28T02:50:13;4.60;51.80
20091;DHT22;10205;49.678;6.560;2023-02-28T02:52:49;4.60;51.90
20091;DHT22;10205;49.678;6.560;2023-02-28T02:55:22;4.60;51.90
20091;DHT22;10205;49.678;6.560;2023-02-28T02:57:53;4.60;52.00
20091;DHT22;10205;49.678;6.560;2023-02-28T03:00:26;4.50;51.90
20091;DHT22;10205;49.678;6.560;2023-02-28T03:02:58;4.50;52.00
20091;DHT22;10205;49.678;6.560;2023-02-28T03:05:32;4.50;52.00
20091;DHT22;10205;49.678;6.560;2023-02-28T03:08:05;4.50;52.10
20091;DHT22;10205;49.678;6.560;2023-02-28T03:10:36;4.50;52.00
20091;DHT22;10205;49.678;6.560;2023-02-28T03:13:30;4.40;52.00
20091;DHT22;10205;49.678;6.560;2023-02-28T03:16:28;4.40;52.20
20091;DHT22;10205;49.678;6.560;2023-02-28T03:19:30;4.40;52.20
20091;DHT22;10205;49.678;6.560;2023-02-28T03:22:24;4.30;52.30
20091;DHT22;10205;49.678;6.560;2023-02-28T03:25:06;4.30;52.20
20091;DHT22;10205;49.678;6.560;2023-02-28T03:27:42;4.30;52.20
20091;DHT22;10205;49.678;6.560;2023-02-28T03:30:24;4.20;52.20
20091;DHT22;10205;49.678;6.560;2023-02-28T03:32:57;4.20;52.30
20091;DHT22;10205;49.678;6.560;2023-02-28T03:35:34;4.20;52.40
20091;DHT22;10205;49.678;6.560;2023-02-28T03:38:10;4.10;52.50
20091;DHT22;10205;49.678;6.560;2023-02-28T03:40:44;4.10;52.60
20091;DHT22;10205;49.678;6.560;2023-02-28T03:43:23;4.10;52.60
20091;DHT22;10205;49.678;6.560;2023-02-28T03:45:56;4.10;52.70
20091;DHT22;10205;49.678;6.560;2023-02-28T03:48:31;4.10;52.60
20091;DHT22;10205;49.678;6.560;2023-02-28T03:51:07;4.00;52.60
20091;DHT22;10205;49.678;6.560;2023-02-28T03:53:44;4.00;52.60
20091;DHT22;10205;49.678;6.560;2023-02-28T03:56:17;4.00;52.70
20091;DHT22;10205;49.678;6.560;2023-02-28T03:58:51;4.00;52.70
20091;DHT22;10205;49.678;6.560;2023-02-28T04:01:27;3.90;52.70
20091;DHT22;10205;49.678;6.560;2023-02-28T04:04:00;3.90;52.80
20091;DHT22;10205;49.678;6.560;2023-02-28T04:06:30;3.90;52.70
20091;DHT22;10205;49.678;6.560;2023-02-28T04:09:00;3.90;52.90
20091;DHT22;10205;49.678;6.560;2023-02-28T04:11:33;3.90;53.60
20091;DHT22;10205;49.678;6.560;2023-02-28T04:14:02;3.90;52.90
20091;DHT22;10205;49.678;6.560;2023-02-28T04:16:30;3.90;53.00
20091;DHT22;10205;49.678;6.560;2023-02-28T04:18:58;3.80;52.90
20091;DHT22;10205;49.678;6.560;2023-02-28T04:21:28;3.80;52.90
20091;DHT22;10205;49.678;6.560;2023-02-28T04:23:56;3.80;52.90
20091;DHT22;10205;49.678;6.560;2023-02-28T04:26:29;3.80;52.90
20091;DHT22;10205;49.678;6.560;2023-02-28T04:29:00;3.80;53.10
20091;DHT22;10205;49.678;6.560;2023-02-28T04:31:28;3.80;53.00
20091;DHT22;10205;49.678;6.560;2023-02-28T04:33:55;3.80;52.90
20091;DHT22;10205;49.678;6.560;2023-02-28T04:36:23;3.80;53.00
20091;DHT22;10205;49.678;6.560;2023-02-28T04:38:50;3.70;53.00
20091;DHT22;10205;49.678;6.560;2023-02-28T04:41:17;3.70;53.00
20091;DHT22;10205;49.678;6.560;2023-02-28T04:43:46;3.70;53.00
20091;DHT22;10205;49.678;6.560;2023-02-28T04:46:16;3.70;53.00
20091;DHT22;10205;49.678;6.560;2023-02-28T04:48:44;3.70;53.10
20091;DHT22;10205;49.678;6.560;2023-02-28T04:51:14;3.70;53.10
20091;DHT22;10205;49.678;6.560;2023-02-28T04:53:42;3.60;53.10
20091;DHT22;10205;49.678;6.560;2023-02-28T04:56:14;3.70;53.10
20091;DHT22;10205;49.678;6.560;2023-02-28T04:58:43;3.60;53.10
20091;DHT22;10205;49.678;6.560;2023-02-28T05:01:21;3.60;53.80
20091;DHT22;10205;49.678;6.560;2023-02-28T05:03:55;3.60;53.40
20091;DHT22;10205;49.678;6.560;2023-02-28T05:06:28;3.60;53.20
20091;DHT22;10205;49.678;6.560;2023-02-28T05:08:58;3.50;53.20
20091;DHT22;10205;49.678;6.560;2023-02-28T05:11:26;3.50;53.20
20091;DHT22;10205;49.678;6.560;2023-02-28T05:13:59;3.50;53.30
20091;DHT22;10205;49.678;6.560;2023-02-28T05:16:35;3.50;53.50
20091;DHT22;10205;49.678;6.560;2023-02-28T05:19:05;3.40;53.60
20091;DHT22;10205;49.678;6.560;2023-02-28T05:21:33;3.40;53.50
20091;DHT22;10205;49.678;6.560;2023-02-28T05:24:03;3.40;53.60
20091;DHT22;10205;49.678;6.560;2023-02-28T05:26:34;3.30;53.70
20091;DHT22;10205;49.678;6.560;2023-02-28T05:29:02;3.30;53.80
20091;DHT22;10205;49.678;6.560;2023-02-28T05:31:30;3.20;53.70
20091;DHT22;10205;49.678;6.560;2023-02-28T05:33:59;3.20;53.90
20091;DHT22;10205;49.678;6.560;2023-02-28T05:36:26;3.20;53.90
20091;DHT22;10205;49.678;6.560;2023-02-28T05:38:54;3.10;54.00
20091;DHT22;10205;49.678;6.560;2023-02-28T05:41:21;3.10;54.00
20091;DHT22;10205;49.678;6.560;2023-02-28T05:43:48;3.10;54.10
20091;DHT22;10205;49.678;6.560;2023-02-28T05:46:16;3.10;54.30
20091;DHT22;10205;49.678;6.560;2023-02-28T05:48:46;3.10;54.30
20091;DHT22;10205;49.678;6.560;2023-02-28T05:51:16;3.00;54.30
20091;DHT22;10205;49.678;6.560;2023-02-28T05:53:43;3.00;54.30
20091;DHT22;10205;49.678;6.560;2023-02-28T05:56:11;3.00;54.50
20091;DHT22;10205;49.678;6.560;2023-02-28T05:58:38;2.90;54.50
20091;DHT22;10205;49.678;6.560;2023-02-28T06:01:21;2.90;54.60
20091;DHT22;10205;49.678;6.560;2023-02-28T06:03:58;2.90;54.90
20091;DHT22;10205;49.678;6.560;2023-02-28T06:06:26;2.90;54.70
20091;DHT22;10205;49.678;6.560;2023-02-28T06:08:55;2.90;54.70
20091;DHT22;10205;49.678;6.560;2023-02-28T06:11:22;2.80;55.50
20091;DHT22;10205;49.678;6.560;2023-02-28T06:13:53;2.80;54.90
20091;DHT22;10205;49.678;6.560;2023-02-28T06:16:22;2.80;55.10
20091;DHT22;10205;49.678;6.560;2023-02-28T06:18:52;2.80;55.20
20091;DHT22;10205;49.678;6.560;2023-02-28T06:21:21;2.80;55.30
20091;DHT22;10205;49.678;6.560;2023-02-28T06:23:50;2.80;55.30
20091;DHT22;10205;49.678;6.560;2023-02-28T06:26:17;2.80;55.60
20091;DHT22;10205;49.678;6.560;2023-02-28T06:28:44;2.70;55.40
20091;DHT22;10205;49.678;6.560;2023-02-28T06:31:13;2.70;55.50
20091;DHT22;10205;49.678;6.560;2023-02-28T06:33:42;2.70;55.70
20091;DHT22;10205;49.678;6.560;2023-02-28T06:36:11;2.70;55.80
20091;DHT22;10205;49.678;6.560;2023-02-28T06:38:40;2.60;56.00
20091;DHT22;10205;49.678;6.560;2023-02-28T06:41:09;2.60;56.10
20091;DHT22;10205;49.678;6.560;2023-02-28T06:43:40;2.60;56.30
20091;DHT22;10205;49.678;6.560;2023-02-28T06:46:11;2.60;56.30
20091;DHT22;10205;49.678;6.560;2023-02-28T06:48:40;2.60;56.20
20091;DHT22;10205;49.678;6.560;2023-02-28T06:51:09;2.60;56.90
20091;DHT22;10205;49.678;6.560;2023-02-28T06:53:38;2.60;56.30
20091;DHT22;10205;49.678;6.560;2023-02-28T06:56:07;2.60;56.10
20091;DHT22;10205;49.678;6.560;2023-02-28T06:58:36;2.60;56.20
20091;DHT22;10205;49.678;6.560;2023-02-28T07:01:05;2.60;56.10
20091;DHT22;10205;49.678;6.560;2023-02-28T07:03:34;2.50;56.00
20091;DHT22;10205;49.678;6.560;2023-02-28T07:06:02;2.60;56.00
20091;DHT22;10205;49.678;6.560;2023-02-28T07:08:31;2.60;56.00
20091;DHT22;10205;49.678;6.560;2023-02-28T07:10:58;2.60;56.10
20091;DHT22;10205;49.678;6.560;2023-02-28T07:13:27;2.60;56.20
20091;DHT22;10205;49.678;6.560;2023-02-28T07:15:55;2.60;56.70
20091;DHT22;10205;49.678;6.560;2023-02-28T07:18:24;2.60;56.70
20091;DHT22;10205;49.678;6.560;2023-02-28T07:20:51;2.60;56.80
20091;DHT22;10205;49.678;6.560;2023-02-28T07:23:19;2.50;56.70
20091;DHT22;10205;49.678;6.560;2023-02-28T07:25:47;2.50;57.20
20091;DHT22;10205;49.678;6.560;2023-02-28T07:28:17;2.50;57.20
20091;DHT22;10205;49.678;6.560;2023-02-28T07:30:46;2.50;57.60
20091;DHT22;10205;49.678;6.560;2023-02-28T07:33:13;2.50;57.60
20091;DHT22;10205;49.678;6.560;2023-02-28T07:35:41;2.50;57.20
20091;DHT22;10205;49.678;6.560;2023-02-28T07:38:08;2.40;57.40
20091;DHT22;10205;49.678;6.560;2023-02-28T07:40:35;2.50;57.70
20091;DHT22;10205;49.678;6.560;2023-02-28T07:43:05;2.40;58.00
20091;DHT22;10205;49.678;6.560;2023-02-28T07:45:33;2.40;58.20
20091;DHT22;10205;49.678;6.560;2023-02-28T07:48:02;2.40;58.50
20091;DHT22;10205;49.678;6.560;2023-02-28T07:50:30;2.40;58.60
20091;DHT22;10205;49.678;6.560;2023-02-28T07:52:57;2.40;58.50
20091;DHT22;10205;49.678;6.560;2023-02-28T07:55:24;2.40;58.50
20091;DHT22;10205;49.678;6.560;2023-02-28T07:57:51;2.40;58.90
20091;DHT22;10205;49.678;6.560;2023-02-28T08:00:19;2.40;58.70
20091;DHT22;10205;49.678;6.560;2023-02-28T08:02:47;2.50;58.50
20091;DHT22;10205;49.678;6.560;2023-02-28T08:05:15;2.50;58.90
20091;DHT22;10205;49.678;6.560;2023-02-28T08:07:42;2.50;58.70
20091;DHT22;10205;49.678;6.560;2023-02-28T08:10:10;2.50;58.50
20091;DHT22;10205;49.678;6.560;2023-02-28T08:12:39;2.50;58.70
20091;DHT22;10205;49.678;6.560;2023-02-28T08:15:07;2.60;58.90
20091;DHT22;10205;49.678;6.560;2023-02-28T08:17:37;2.60;58.90
20091;DHT22;10205;49.678;6.560;2023-02-28T08:20:06;2.60;59.00
20091;DHT22;10205;49.678;6.560;2023-02-28T08:22:36;2.70;58.80
20091;DHT22;10205;49.678;6.560;2023-02-28T08:25:03;2.70;58.70
20091;DHT22;10205;49.678;6.560;2023-02-28T08:27:32;2.80;58.70
20091;DHT22;10205;49.678;6.560;2023-02-28T08:29:59;2.80;58.80
20091;DHT22;10205;49.678;6.560;2023-02-28T08:32:27;2.80;59.00
20091;DHT22;10205;49.678;6.560;2023-02-28T08:34:54;2.90;59.00
20091;DHT22;10205;49.678;6.560;2023-02-28T08:37:23;2.90;58.90
20091;DHT22;10205;49.678;6.560;2023-02-28T08:39:52;3.00;58.90
20091;DHT22;10205;49.678;6.560;2023-02-28T08:42:19;3.10;58.90
20091;DHT22;10205;49.678;6.560;2023-02-28T08:44:46;3.10;58.60
20091;DHT22;10205;49.678;6.560;2023-02-28T08:47:13;3.10;58.60
20091;DHT22;10205;49.678;6.560;2023-02-28T08:49:40;3.20;58.70
20091;DHT22;10205;49.678;6.560;2023-02-28T08:52:07;3.20;58.50
20091;DHT22;10205;49.678;6.560;2023-02-28T08:54:35;3.30;58.70
20091;DHT22;10205;49.678;6.560;2023-02-28T08:57:03;3.30;58.50
20091;DHT22;10205;49.678;6.560;2023-02-28T08:59:31;3.40;58.40
20091;DHT22;10205;49.678;6.560;2023-02-28T09:01:58;3.50;58.40
20091;DHT22;10205;49.678;6.560;2023-02-28T09:04:26;3.50;58.10
20091;DHT22;10205;49.678;6.560;2023-02-28T09:06:56;3.50;58.00
20091;DHT22;10205;49.678;6.560;2023-02-28T09:09:23;3.60;57.80
20091;DHT22;10205;49.678;6.560;2023-02-28T09:11:50;3.70;57.40
20091;DHT22;10205;49.678;6.560;2023-02-28T09:14:18;3.70;57.40
20091;DHT22;10205;49.678;6.560;2023-02-28T09:16:45;3.80;57.20
20091;DHT22;10205;49.678;6.560;2023-02-28T09:19:12;3.80;56.90
20091;DHT22;10205;49.678;6.560;2023-02-28T09:21:40;3.90;56.80
20091;DHT22;10205;49.678;6.560;2023-02-28T09:24:07;3.90;56.50
20091;DHT22;10205;49.678;6.560;2023-02-28T09:26:37;4.00;56.10
20091;DHT22;10205;49.678;6.560;2023-02-28T09:29:04;4.00;55.90
20091;DHT22;10205;49.678;6.560;2023-02-28T09:31:33;4.10;55.80
20091;DHT22;10205;49.678;6.560;2023-02-28T09:34:00;4.20;55.70
20091;DHT22;10205;49.678;6.560;2023-02-28T09:36:27;4.20;55.30
20091;DHT22;10205;49.678;6.560;2023-02-28T09:38:55;4.20;55.10
20091;DHT22;10205;49.678;6.560;2023-02-28T09:41:24;4.30;55.00
20091;DHT22;10205;49.678;6.560;2023-02-28T09:43:55;4.30;55.00
20091;DHT22;10205;49.678;6.560;2023-02-28T09:46:29;4.40;54.80
20091;DHT22;10205;49.678;6.560;2023-02-28T09:49:03;4.40;54.90
20091;DHT22;10205;49.678;6.560;2023-02-28T09:51:48;4.50;55.00
20091;DHT22;10205;49.678;6.560;2023-02-28T09:54:19;4.50;54.60
20091;DHT22;10205;49.678;6.560;2023-02-28T09:56:50;4.50;55.00
20091;DHT22;10205;49.678;6.560;2023-02-28T09:59:36;4.60;54.10
20091;DHT22;10205;49.678;6.560;2023-02-28T10:02:33;4.60;54.00
20091;DHT22;10205;49.678;6.560;2023-02-28T10:05:15;4.60;54.10
20091;DHT22;10205;49.678;6.560;2023-02-28T10:07:56;4.70;53.80
20091;DHT22;10205;49.678;6.560;2023-02-28T10:10:35;4.70;53.60
20091;DHT22;10205;49.678;6.560;2023-02-28T10:13:13;4.80;53.70
20091;DHT22;10205;49.678;6.560;2023-02-28T10:15:48;4.80;53.80
20091;DHT22;10205;49.678;6.560;2023-02-28T10:18:23;4.90;53.80
20091;DHT22;10205;49.678;6.560;2023-02-28T10:20:54;4.90;53.90
20091;DHT22;10205;49.678;6.560;2023-02-28T10:23:28;5.00;53.70
20091;DHT22;10205;49.678;6.560;2023-02-28T10:26:08;5.00;53.70
20091;DHT22;10205;49.678;6.560;2023-02-28T10:28:39;5.10;53.60
20091;DHT22;10205;49.678;6.560;2023-02-28T10:31:14;5.10;53.50
20091;DHT22;10205;49.678;6.560;2023-02-28T10:33:46;5.20;53.40
20091;DHT22;10205;49.678;6.560;2023-02-28T10:36:16;5.30;53.30
20091;DHT22;10205;49.678;6.560;2023-02-28T10:38:46;5.30;53.20
20091;DHT22;10205;49.678;6.560;2023-02-28T10:41:26;5.40;53.90
20091;DHT22;10205;49.678;6.560;2023-02-28T10:44:13;5.50;53.40
20091;DHT22;10205;49.678;6.560;2023-02-28T10:46:45;5.50;53.20
20091;DHT22;10205;49.678;6.560;2023-02-28T10:49:17;5.60;53.10
20091;DHT22;10205;49.678;6.560;2023-02-28T10:51:50;5.60;52.90
20091;DHT22;10205;49.678;6.560;2023-02-28T10:54:23;5.70;52.80
20091;DHT22;10205;49.678;6.560;2023-02-28T10:57:06;5.80;52.50
20091;DHT22;10205;49.678;6.560;2023-02-28T10:59:35;5.80;52.40
20091;DHT22;10205;49.678;6.560;2023-02-28T11:02:31;5.90;52.30
20091;DHT22;10205;49.678;6.560;2023-02-28T11:05:02;5.90;51.80
20091;DHT22;10205;49.678;6.560;2023-02-28T11:07:29;6.00;52.10
20091;DHT22;10205;49.678;6.560;2023-02-28T11:09:57;6.00;52.00
20091;DHT22;10205;49.678;6.560;2023-02-28T11:12:26;6.10;51.90
20091;DHT22;10205;49.678;6.560;2023-02-28T11:14:59;6.10;52.00
20091;DHT22;10205;49.678;6.560;2023-02-28T11:17:31;6.20;52.00
20091;DHT22;10205;49.678;6.560;2023-02-28T11:20:02;6.20;51.50
20091;DHT22;10205;49.678;6.560;2023-02-28T11:22:36;6.30;51.40
20091;DHT22;10205;49.678;6.560;2023-02-28T11:25:08;6.30;51.10
20091;DHT22;10205;49.678;6.560;2023-02-28T11:27:46;6.30;51.00
20091;DHT22;10205;49.678;6.560;2023-02-28T11:30:39;6.40;51.00
20091;DHT22;10205;49.678;6.560;2023-02-28T11:33:26;6.50;50.40
20091;DHT22;10205;49.678;6.560;2023-02-28T11:36:00;6.50;50.80
20091;DHT22;10205;49.678;6.560;2023-02-28T11:38:28;6.60;51.10
20091;DHT22;10205;49.678;6.560;2023-02-28T11:41:09;6.60;49.90
20091;DHT22;10205;49.678;6.560;2023-02-28T11:44:03;6.70;50.40
20091;DHT22;10205;49.678;6.560;2023-02-28T11:46:44;6.70;49.30
20091;DHT22;10205;49.678;6.560;2023-02-28T11:49:27;6.80;49.40
20091;DHT22;10205;49.678;6.560;2023-02-28T11:52:08;6.80;48.80
20091;DHT22;10205;49.678;6.560;2023-02-28T11:54:57;6.80;50.30
20091;DHT22;10205;49.678;6.560;2023-02-28T11:57:56;6.90;49.20
20091;DHT22;10205;49.678;6.560;2023-02-28T12:03:56;7.00;48.70
20091;DHT22;10205;49.678;6.560;2023-02-28T12:06:31;7.00;48.80
20091;DHT22;10205;49.678;6.560;2023-02-28T12:09:15;7.00;49.10
20091;DHT22;10205;49.678;6.560;2023-02-28T12:12:00;7.10;49.10
20091;DHT22;10205;49.678;6.560;2023-02-28T12:18:10;7.20;49.30
20091;DHT22;10205;49.678;6.560;2023-02-28T12:20:53;7.20;49.00
20091;DHT22;10205;49.678;6.560;2023-02-28T12:23:47;7.20;48.40
20091;DHT22;10205;49.678;6.560;2023-02-28T12:26:32;7.30;47.70
20091;DHT22;10205;49.678;6.560;2023-02-28T12:29:11;7.30;47.80
20091;DHT22;10205;49.678;6.560;2023-02-28T12:31:48;7.30;48.30
20091;DHT22;10205;49.678;6.560;2023-02-28T12:34:20;7.40;48.50
20091;DHT22;10205;49.678;6.560;2023-02-28T12:36:54;7.50;48.70
20091;DHT22;10205;49.678;6.560;2023-02-28T12:39:25;7.40;48.30
20091;DHT22;10205;49.678;6.560;2023-02-28T12:41:59;7.50;48.50
20091;DHT22;10205;49.678;6.560;2023-02-28T12:44:34;7.50;48.40
20091;DHT22;10205;49.678;6.560;2023-02-28T12:47:14;7.60;47.60
20091;DHT22;10205;49.678;6.560;2023-02-28T12:49:46;7.60;47.80
20091;DHT22;10205;49.678;6.560;2023-02-28T12:52:19;7.60;47.20
20091;DHT22;10205;49.678;6.560;2023-02-28T12:54:53;7.70;47.60
20091;DHT22;10205;49.678;6.560;2023-02-28T12:57:34;7.70;47.80
20091;DHT22;10205;49.678;6.560;2023-02-28T13:00:11;7.80;46.70
20091;DHT22;10205;49.678;6.560;2023-02-28T13:03:07;7.80;46.30
20091;DHT22;10205;49.678;6.560;2023-02-28T13:06:09;7.80;46.60
20091;DHT22;10205;49.678;6.560;2023-02-28T13:09:01;7.90;46.10
20091;DHT22;10205;49.678;6.560;2023-02-28T13:11:33;7.90;46.40
20091;DHT22;10205;49.678;6.560;2023-02-28T13:14:19;7.90;46.20
20091;DHT22;10205;49.678;6.560;2023-02-28T13:17:01;8.00;46.10
20091;DHT22;10205;49.678;6.560;2023-02-28T13:19:37;8.00;47.10
20091;DHT22;10205;49.678;6.560;2023-02-28T13:22:18;8.00;46.60
20091;DHT22;10205;49.678;6.560;2023-02-28T13:24:49;8.10;46.90
20091;DHT22;10205;49.678;6.560;2023-02-28T13:27:23;8.10;46.60
20091;DHT22;10205;49.678;6.560;2023-02-28T13:30:00;8.10;46.40
20091;DHT22;10205;49.678;6.560;2023-02-28T13:32:34;8.20;47.00
20091;DHT22;10205;49.678;6.560;2023-02-28T13:38:34;8.20;46.70
20091;DHT22;10205;49.678;6.560;2023-02-28T13:44:22;8.30;46.00
20091;DHT22;10205;49.678;6.560;2023-02-28T13:47:24;8.40;46.80
20091;DHT22;10205;49.678;6.560;2023-02-28T13:50:14;8.40;45.90
20091;DHT22;10205;49.678;6.560;2023-02-28T13:52:55;8.40;46.40
20091;DHT22;10205;49.678;6.560;2023-02-28T13:55:46;8.50;46.70
20091;DHT22;10205;49.678;6.560;2023-02-28T13:58:31;8.50;46.10
20091;DHT22;10205;49.678;6.560;2023-02-28T14:04:54;8.60;45.40
20091;DHT22;10205;49.678;6.560;2023-02-28T14:07:30;8.60;44.60
20091;DHT22;10205;49.678;6.560;2023-02-28T14:10:03;8.60;45.10
20091;DHT22;10205;49.678;6.560;2023-02-28T14:13:03;8.60;45.70
20091;DHT22;10205;49.678;6.560;2023-02-28T14:15:44;8.60;45.00
20091;DHT22;10205;49.678;6.560;2023-02-28T14:18:28;8.70;45.90
20091;DHT22;10205;49.678;6.560;2023-02-28T14:21:03;8.70;45.70
20091;DHT22;10205;49.678;6.560;2023-02-28T14:27:11;8.70;45.00
20091;DHT22;10205;49.678;6.560;2023-02-28T14:30:17;8.70;44.50
20091;DHT22;10205;49.678;6.560;2023-02-28T14:33:14;8.70;44.90
20091;DHT22;10205;49.678;6.560;2023-02-28T14:36:07;8.80;44.40
20091;DHT22;10205;49.678;6.560;2023-02-28T14:38:44;8.80;44.40
20091;DHT22;10205;49.678;6.560;2023-02-28T14:41:19;8.80;44.50
20091;DHT22;10205;49.678;6.560;2023-02-28T14:43:54;8.80;44.80
20091;DHT22;10205;49.678;6.560;2023-02-28T14:46:30;8.80;44.40
20091;DHT22;10205;49.678;6.560;2023-02-28T14:49:04;8.80;44.20
20091;DHT22;10205;49.678;6.560;2023-02-28T14:51:35;8.80;45.10
20091;DHT22;10205;49.678;6.560;2023-02-28T14:54:03;8.80;44.20
20091;DHT22;10205;49.678;6.560;2023-02-28T14:56:35;8.90;44.20
20091;DHT22;10205;49.678;6.560;2023-02-28T14:59:31;8.90;44.80
20091;DHT22;10205;49.678;6.560;2023-02-28T15:02:20;9.00;44.80
20091;DHT22;10205;49.678;6.560;2023-02-28T15:04:56;9.00;45.60
20091;DHT22;10205;49.678;6.560;2023-02-28T15:07:26;9.10;46.00
20091;DHT22;10205;49.678;6.560;2023-02-28T15:10:16;9.20;46.60
20091;DHT22;10205;49.678;6.560;2023-02-28T15:12:51;9.30;44.90
20091;DHT22;10205;49.678;6.560;2023-02-28T15:15:22;9.40;46.30
20091;DHT22;10205;49.678;6.560;2023-02-28T15:17:56;9.50;46.50
20091;DHT22;10205;49.678;6.560;2023-02-28T15:20:24;9.60;45.40
20091;DHT22;10205;49.678;6.560;2023-02-28T15:22:56;9.70;45.40
20091;DHT22;10205;49.678;6.560;2023-02-28T15:25:24;9.70;43.80
20091;DHT22;10205;49.678;6.560;2023-02-28T15:27:53;9.80;44.70
20091;DHT22;10205;49.678;6.560;2023-02-28T15:30:26;9.90;45.40
20091;DHT22;10205;49.678;6.560;2023-02-28T15:33:18;9.90;45.10
20091;DHT22;10205;49.678;6.560;2023-02-28T15:35:47;9.90;44.00
20091;DHT22;10205;49.678;6.560;2023-02-28T15:38:21;10.00;44.70
20091;DHT22;10205;49.678;6.560;2023-02-28T15:40:52;10.00;44.50
20091;DHT22;10205;49.678;6.560;2023-02-28T15:43:25;10.10;45.00
20091;DHT22;10205;49.678;6.560;2023-02-28T15:45:57;10.10;44.20
20091;DHT22;10205;49.678;6.560;2023-02-28T15:48:28;10.10;44.50
20091;DHT22;10205;49.678;6.560;2023-02-28T15:51:01;10.20;44.80
20091;DHT22;10205;49.678;6.560;2023-02-28T15:53:37;10.20;44.70
20091;DHT22;10205;49.678;6.560;2023-02-28T15:56:21;10.20;43.70
20091;DHT22;10205;49.678;6.560;2023-02-28T15:58:53;10.20;44.00
20091;DHT22;10205;49.678;6.560;2023-02-28T16:01:24;10.30;44.60
20091;DHT22;10205;49.678;6.560;2023-02-28T16:03:55;10.30;43.30
20091;DHT22;10205;49.678;6.560;2023-02-28T16:06:39;10.30;44.00
20091;DHT22;10205;49.678;6.560;2023-02-28T16:09:11;10.30;43.30
20091;DHT22;10205;49.678;6.560;2023-02-28T16:11:44;10.30;43.50
20091;DHT22;10205;49.678;6.560;2023-02-28T16:14:17;10.30;43.40
20091;DHT22;10205;49.678;6.560;2023-02-28T16:16:52;10.30;43.30
20091;DHT22;10205;49.678;6.560;2023-02-28T16:19:21;10.30;43.60
20091;DHT22;10205;49.678;6.560;2023-02-28T16:21:49;10.20;44.60
20091;DHT22;10205;49.678;6.560;2023-02-28T16:24:20;10.20;44.00
20091;DHT22;10205;49.678;6.560;2023-02-28T16:26:48;10.20;44.20
20091;DHT22;10205;49.678;6.560;2023-02-28T16:29:23;10.20;43.70
20091;DHT22;10205;49.678;6.560;2023-02-28T16:31:52;10.20;44.10
20091;DHT22;10205;49.678;6.560;2023-02-28T16:34:19;10.20;44.60
20091;DHT22;10205;49.678;6.560;2023-02-28T16:36:48;10.20;44.50
20091;DHT22;10205;49.678;6.560;2023-02-28T16:39:17;10.20;44.70
20091;DHT22;10205;49.678;6.560;2023-02-28T16:41:48;10.20;44.70
20091;DHT22;10205;49.678;6.560;2023-02-28T16:44:23;10.30;44.50
20091;DHT22;10205;49.678;6.560;2023-02-28T16:46:53;10.20;44.30
20091;DHT22;10205;49.678;6.560;2023-02-28T16:49:21;10.30;44.10
20091;DHT22;10205;49.678;6.560;2023-02-28T16:51:50;10.30;44.00